sensor_id;sensor_type;location;lat;lon;timestamp;P1;durP1;ratioP1;P2;durP2;ratioP2
11034;SDS011;5571;48.110;-1.706;2023-01-19T00:01:11;11.43;;;2.70;;
11034;SDS011;5571;48.110;-1.706;2023-01-19T00:03:36;12.67;;;2.90;;
11034;SDS011;5571;48.110;-1.706;2023-01-19T00:06:05;6.70;;;2.37;;
11034;SDS011;5571;48.110;-1.706;2023-01-19T00:08:31;6.83;;;2.40;;
11034;SDS011;5571;48.110;-1.706;2023-01-19T00:10:58;10.13;;;2.37;;
11034;SDS011;5571;48.110;-1.706;2023-01-19T00:13:24;7.10;;;2.23;;
11034;SDS011;5571;48.110;-1.706;2023-01-19T00:15:49;5.37;;;2.63;;
11034;SDS011;5571;48.110;-1.706;2023-01-19T00:18:15;7.73;;;2.93;;
11034;SDS011;5571;48.110;-1.706;2023-01-19T00:20:41;9.37;;;2.53;;
11034;SDS011;5571;48.110;-1.706;2023-01-19T00:23:12;7.30;;;2.63;;
11034;SDS011;5571;48.110;-1.706;2023-01-19T00:25:38;8.37;;;2.47;;
11034;SDS011;5571;48.110;-1.706;2023-01-19T00:28:08;8.57;;;3.33;;
11034;SDS011;5571;48.110;-1.706;2023-01-19T00:30:34;8.07;;;3.10;;
11034;SDS011;5571;48.110;-1.706;2023-01-19T00:33:00;7.53;;;2.67;;
11034;SDS011;5571;48.110;-1.706;2023-01-19T00:35:25;8.10;;;2.63;;
11034;SDS011;5571;48.110;-1.706;2023-01-19T00:37:51;6.67;;;2.50;;
11034;SDS011;5571;48.110;-1.706;2023-01-19T00:40:17;6.33;;;2.20;;
11034;SDS011;5571;48.110;-1.706;2023-01-19T00:42:42;5.47;;;2.50;;
11034;SDS011;5571;48.110;-1.706;2023-01-19T00:45:15;5.50;;;2.60;;
11034;SDS011;5571;48.110;-1.706;2023-01-19T00:47:42;11.03;;;3.10;;
11034;SDS011;5571;48.110;-1.706;2023-01-19T00:50:09;4.33;;;2.07;;
11034;SDS011;5571;48.110;-1.706;2023-01-19T00:52:37;6.17;;;2.47;;
11034;SDS011;5571;48.110;-1.706;2023-01-19T00:55:03;5.60;;;2.40;;
11034;SDS011;5571;48.110;-1.706;2023-01-19T00:57:29;4.73;;;2.00;;
11034;SDS011;5571;48.110;-1.706;2023-01-19T00:59:55;5.33;;;1.90;;
11034;SDS011;5571;48.110;-1.706;2023-01-19T01:02:20;8.03;;;2.13;;
11034;SDS011;5571;48.110;-1.706;2023-01-19T01:04:46;5.70;;;2.20;;
11034;SDS011;5571;48.110;-1.706;2023-01-19T01:07:11;6.60;;;2.13;;
11034;SDS011;5571;48.110;-1.706;2023-01-19T01:09:37;7.93;;;2.13;;
11034;SDS011;5571;48.110;-1.706;2023-01-19T01:12:03;9.67;;;3.30;;
11034;SDS011;5571;48.110;-1.706;2023-01-19T01:14:29;7.43;;;3.07;;
11034;SDS011;5571;48.110;-1.706;2023-01-19T01:16:55;9.00;;;3.00;;
11034;SDS011;5571;48.110;-1.706;2023-01-19T01:19:20;7.63;;;2.83;;
11034;SDS011;5571;48.110;-1.706;2023-01-19T01:21:46;8.67;;;3.43;;
11034;SDS011;5571;48.110;-1.706;2023-01-19T01:24:11;8.07;;;3.13;;
11034;SDS011;5571;48.110;-1.706;2023-01-19T01:26:37;11.03;;;3.13;;
11034;SDS011;5571;48.110;-1.706;2023-01-19T01:29:06;9.20;;;2.60;;
11034;SDS011;5571;48.110;-1.706;2023-01-19T01:31:32;9.03;;;3.03;;
11034;SDS011;5571;48.110;-1.706;2023-01-19T01:33:58;6.60;;;3.43;;
11034;SDS011;5571;48.110;-1.706;2023-01-19T01:36:23;9.23;;;3.80;;
11034;SDS011;5571;48.110;-1.706;2023-01-19T01:38:51;7.17;;;3.70;;
11034;SDS011;5571;48.110;-1.706;2023-01-19T01:41:17;7.30;;;2.70;;
11034;SDS011;5571;48.110;-1.706;2023-01-19T01:43:44;7.93;;;2.80;;
11034;SDS011;5571;48.110;-1.706;2023-01-19T01:46:18;4.20;;;2.20;;
11034;SDS011;5571;48.110;-1.706;2023-01-19T01:48:49;8.60;;;2.13;;
11034;SDS011;5571;48.110;-1.706;2023-01-19T01:51:29;8.87;;;2.17;;
11034;SDS011;5571;48.110;-1.706;2023-01-19T01:53:59;7.37;;;1.80;;
11034;SDS011;5571;48.110;-1.706;2023-01-19T01:56:40;3.83;;;1.53;;
11034;SDS011;5571;48.110;-1.706;2023-01-19T01:59:11;6.93;;;2.03;;
11034;SDS011;5571;48.110;-1.706;2023-01-19T02:01:50;3.40;;;1.50;;
11034;SDS011;5571;48.110;-1.706;2023-01-19T02:04:39;6.13;;;1.30;;
11034;SDS011;5571;48.110;-1.706;2023-01-19T02:07:11;1.40;;;0.87;;
11034;SDS011;5571;48.110;-1.706;2023-01-19T02:09:59;3.53;;;1.87;;
11034;SDS011;5571;48.110;-1.706;2023-01-19T02:12:43;3.80;;;1.00;;
11034;SDS011;5571;48.110;-1.706;2023-01-19T02:15:28;0.70;;;0.70;;
11034;SDS011;5571;48.110;-1.706;2023-01-19T02:17:53;2.20;;;1.00;;
11034;SDS011;5571;48.110;-1.706;2023-01-19T02:20:23;3.77;;;1.07;;
11034;SDS011;5571;48.110;-1.706;2023-01-19T02:22:51;3.17;;;1.40;;
11034;SDS011;5571;48.110;-1.706;2023-01-19T02:25:20;3.37;;;1.40;;
11034;SDS011;5571;48.110;-1.706;2023-01-19T02:27:46;5.80;;;1.53;;
11034;SDS011;5571;48.110;-1.706;2023-01-19T02:30:13;5.40;;;1.50;;
11034;SDS011;5571;48.110;-1.706;2023-01-19T02:32:40;3.87;;;1.07;;
11034;SDS011;5571;48.110;-1.706;2023-01-19T02:35:06;6.70;;;1.33;;
11034;SDS011;5571;48.110;-1.706;2023-01-19T02:37:33;4.90;;;1.47;;
11034;SDS011;5571;48.110;-1.706;2023-01-19T02:40:01;5.47;;;1.60;;
11034;SDS011;5571;48.110;-1.706;2023-01-19T02:42:31;4.37;;;1.40;;
11034;SDS011;5571;48.110;-1.706;2023-01-19T02:45:01;5.03;;;1.30;;
11034;SDS011;5571;48.110;-1.706;2023-01-19T02:47:49;5.53;;;1.53;;
11034;SDS011;5571;48.110;-1.706;2023-01-19T02:53:04;4.43;;;1.30;;
11034;SDS011;5571;48.110;-1.706;2023-01-19T02:58:44;3.50;;;1.40;;
11034;SDS011;5571;48.110;-1.706;2023-01-19T03:08:59;8.23;;;1.87;;
11034;SDS011;5571;48.110;-1.706;2023-01-19T03:11:29;3.97;;;1.60;;
11034;SDS011;5571;48.110;-1.706;2023-01-19T03:14:08;5.10;;;1.60;;
11034;SDS011;5571;48.110;-1.706;2023-01-19T03:16:40;4.10;;;1.87;;
11034;SDS011;5571;48.110;-1.706;2023-01-19T03:19:18;4.80;;;1.60;;
11034;SDS011;5571;48.110;-1.706;2023-01-19T03:22:08;3.37;;;1.27;;
11034;SDS011;5571;48.110;-1.706;2023-01-19T03:24:38;4.67;;;1.47;;
11034;SDS011;5571;48.110;-1.706;2023-01-19T03:27:21;7.27;;;1.70;;
11034;SDS011;5571;48.110;-1.706;2023-01-19T03:29:51;6.73;;;1.80;;
11034;SDS011;5571;48.110;-1.706;2023-01-19T03:32:21;6.23;;;1.97;;
11034;SDS011;5571;48.110;-1.706;2023-01-19T03:34:54;3.47;;;1.23;;
11034;SDS011;5571;48.110;-1.706;2023-01-19T03:37:24;6.40;;;1.40;;
11034;SDS011;5571;48.110;-1.706;2023-01-19T03:39:52;6.23;;;1.70;;
11034;SDS011;5571;48.110;-1.706;2023-01-19T03:42:19;2.73;;;1.53;;
11034;SDS011;5571;48.110;-1.706;2023-01-19T03:44:46;8.10;;;2.17;;
11034;SDS011;5571;48.110;-1.706;2023-01-19T03:47:14;4.53;;;2.00;;
11034;SDS011;5571;48.110;-1.706;2023-01-19T03:49:42;4.83;;;2.00;;
11034;SDS011;5571;48.110;-1.706;2023-01-19T03:52:09;5.60;;;1.77;;
11034;SDS011;5571;48.110;-1.706;2023-01-19T03:54:35;5.50;;;2.07;;
11034;SDS011;5571;48.110;-1.706;2023-01-19T03:57:01;7.07;;;1.57;;
11034;SDS011;5571;48.110;-1.706;2023-01-19T03:59:26;7.73;;;2.10;;
11034;SDS011;5571;48.110;-1.706;2023-01-19T04:01:52;7.13;;;2.13;;
11034;SDS011;5571;48.110;-1.706;2023-01-19T04:04:18;6.80;;;1.90;;
11034;SDS011;5571;48.110;-1.706;2023-01-19T04:06:43;6.53;;;2.10;;
11034;SDS011;5571;48.110;-1.706;2023-01-19T04:09:09;5.47;;;2.23;;
11034;SDS011;5571;48.110;-1.706;2023-01-19T04:11:35;10.10;;;1.97;;
11034;SDS011;5571;48.110;-1.706;2023-01-19T04:14:00;8.47;;;1.80;;
11034;SDS011;5571;48.110;-1.706;2023-01-19T04:16:26;4.73;;;1.83;;
11034;SDS011;5571;48.110;-1.706;2023-01-19T04:18:53;5.23;;;1.97;;
11034;SDS011;5571;48.110;-1.706;2023-01-19T04:21:18;8.40;;;2.10;;
11034;SDS011;5571;48.110;-1.706;2023-01-19T04:23:44;7.30;;;2.40;;
11034;SDS011;5571;48.110;-1.706;2023-01-19T04:26:10;8.53;;;2.13;;
11034;SDS011;5571;48.110;-1.706;2023-01-19T04:28:36;8.10;;;1.87;;
11034;SDS011;5571;48.110;-1.706;2023-01-19T04:31:02;6.47;;;2.00;;
11034;SDS011;5571;48.110;-1.706;2023-01-19T04:33:29;8.50;;;2.07;;
11034;SDS011;5571;48.110;-1.706;2023-01-19T04:35:55;4.40;;;1.60;;
11034;SDS011;5571;48.110;-1.706;2023-01-19T04:38:21;6.20;;;1.87;;
11034;SDS011;5571;48.110;-1.706;2023-01-19T04:40:48;7.77;;;1.93;;
11034;SDS011;5571;48.110;-1.706;2023-01-19T04:43:15;5.90;;;1.90;;
11034;SDS011;5571;48.110;-1.706;2023-01-19T04:45:41;6.07;;;1.70;;
11034;SDS011;5571;48.110;-1.706;2023-01-19T04:48:09;8.60;;;1.70;;
11034;SDS011;5571;48.110;-1.706;2023-01-19T04:50:35;5.80;;;2.20;;
11034;SDS011;5571;48.110;-1.706;2023-01-19T04:53:01;8.90;;;2.17;;
11034;SDS011;5571;48.110;-1.706;2023-01-19T04:55:27;8.50;;;1.97;;
11034;SDS011;5571;48.110;-1.706;2023-01-19T04:57:53;6.77;;;1.87;;
11034;SDS011;5571;48.110;-1.706;2023-01-19T05:00:19;7.60;;;1.90;;
11034;SDS011;5571;48.110;-1.706;2023-01-19T05:02:45;8.47;;;2.10;;
11034;SDS011;5571;48.110;-1.706;2023-01-19T05:05:11;5.77;;;2.00;;
11034;SDS011;5571;48.110;-1.706;2023-01-19T05:07:37;6.10;;;2.33;;
11034;SDS011;5571;48.110;-1.706;2023-01-19T05:10:03;6.53;;;2.33;;
11034;SDS011;5571;48.110;-1.706;2023-01-19T05:12:30;6.33;;;2.00;;
11034;SDS011;5571;48.110;-1.706;2023-01-19T05:14:56;6.83;;;2.17;;
11034;SDS011;5571;48.110;-1.706;2023-01-19T05:17:21;4.90;;;2.10;;
11034;SDS011;5571;48.110;-1.706;2023-01-19T05:19:47;6.97;;;2.20;;
11034;SDS011;5571;48.110;-1.706;2023-01-19T05:22:13;5.43;;;2.13;;
11034;SDS011;5571;48.110;-1.706;2023-01-19T05:24:39;12.93;;;2.43;;
11034;SDS011;5571;48.110;-1.706;2023-01-19T05:27:05;6.07;;;2.30;;
11034;SDS011;5571;48.110;-1.706;2023-01-19T05:29:30;5.30;;;2.47;;
11034;SDS011;5571;48.110;-1.706;2023-01-19T05:31:56;7.23;;;2.57;;
11034;SDS011;5571;48.110;-1.706;2023-01-19T05:34:22;4.37;;;1.93;;
11034;SDS011;5571;48.110;-1.706;2023-01-19T05:36:48;4.57;;;2.00;;
11034;SDS011;5571;48.110;-1.706;2023-01-19T05:39:13;7.83;;;2.60;;
11034;SDS011;5571;48.110;-1.706;2023-01-19T05:41:39;8.63;;;2.80;;
11034;SDS011;5571;48.110;-1.706;2023-01-19T05:44:06;8.10;;;2.20;;
11034;SDS011;5571;48.110;-1.706;2023-01-19T05:46:32;8.30;;;2.47;;
11034;SDS011;5571;48.110;-1.706;2023-01-19T05:48:58;6.77;;;2.10;;
11034;SDS011;5571;48.110;-1.706;2023-01-19T05:51:28;6.27;;;2.27;;
11034;SDS011;5571;48.110;-1.706;2023-01-19T05:53:59;9.70;;;2.57;;
11034;SDS011;5571;48.110;-1.706;2023-01-19T05:56:25;10.03;;;2.47;;
11034;SDS011;5571;48.110;-1.706;2023-01-19T05:58:51;4.30;;;2.13;;
11034;SDS011;5571;48.110;-1.706;2023-01-19T06:01:16;4.50;;;1.93;;
11034;SDS011;5571;48.110;-1.706;2023-01-19T06:03:42;6.00;;;1.93;;
11034;SDS011;5571;48.110;-1.706;2023-01-19T06:06:08;6.10;;;2.17;;
11034;SDS011;5571;48.110;-1.706;2023-01-19T06:08:34;6.47;;;2.30;;
11034;SDS011;5571;48.110;-1.706;2023-01-19T06:11:00;4.67;;;2.00;;
11034;SDS011;5571;48.110;-1.706;2023-01-19T06:13:25;7.00;;;2.30;;
11034;SDS011;5571;48.110;-1.706;2023-01-19T06:15:58;9.50;;;3.80;;
11034;SDS011;5571;48.110;-1.706;2023-01-19T06:18:24;6.07;;;2.60;;
11034;SDS011;5571;48.110;-1.706;2023-01-19T06:20:50;9.63;;;2.87;;
11034;SDS011;5571;48.110;-1.706;2023-01-19T06:23:16;9.17;;;3.47;;
11034;SDS011;5571;48.110;-1.706;2023-01-19T06:25:42;10.37;;;3.20;;
11034;SDS011;5571;48.110;-1.706;2023-01-19T06:28:07;9.90;;;4.40;;
11034;SDS011;5571;48.110;-1.706;2023-01-19T06:30:33;13.87;;;6.90;;
11034;SDS011;5571;48.110;-1.706;2023-01-19T06:32:59;12.00;;;4.80;;
11034;SDS011;5571;48.110;-1.706;2023-01-19T06:35:24;7.67;;;3.40;;
11034;SDS011;5571;48.110;-1.706;2023-01-19T06:37:51;13.37;;;3.10;;
11034;SDS011;5571;48.110;-1.706;2023-01-19T06:40:17;5.17;;;2.00;;
11034;SDS011;5571;48.110;-1.706;2023-01-19T06:42:42;7.33;;;2.90;;
11034;SDS011;5571;48.110;-1.706;2023-01-19T06:45:08;10.10;;;2.50;;
11034;SDS011;5571;48.110;-1.706;2023-01-19T06:47:34;9.07;;;2.73;;
11034;SDS011;5571;48.110;-1.706;2023-01-19T06:50:00;6.47;;;2.60;;
11034;SDS011;5571;48.110;-1.706;2023-01-19T06:52:26;11.43;;;2.67;;
11034;SDS011;5571;48.110;-1.706;2023-01-19T06:54:52;5.60;;;2.30;;
11034;SDS011;5571;48.110;-1.706;2023-01-19T06:57:18;5.60;;;2.30;;
11034;SDS011;5571;48.110;-1.706;2023-01-19T06:59:43;7.83;;;2.53;;
11034;SDS011;5571;48.110;-1.706;2023-01-19T07:02:09;9.47;;;2.30;;
11034;SDS011;5571;48.110;-1.706;2023-01-19T07:04:43;8.93;;;2.40;;
11034;SDS011;5571;48.110;-1.706;2023-01-19T07:07:09;5.83;;;2.40;;
11034;SDS011;5571;48.110;-1.706;2023-01-19T07:09:35;6.70;;;2.33;;
11034;SDS011;5571;48.110;-1.706;2023-01-19T07:12:00;6.07;;;2.53;;
11034;SDS011;5571;48.110;-1.706;2023-01-19T07:14:26;8.03;;;2.40;;
11034;SDS011;5571;48.110;-1.706;2023-01-19T07:16:57;8.17;;;2.27;;
11034;SDS011;5571;48.110;-1.706;2023-01-19T07:19:23;8.67;;;3.40;;
11034;SDS011;5571;48.110;-1.706;2023-01-19T07:21:48;5.13;;;2.37;;
11034;SDS011;5571;48.110;-1.706;2023-01-19T07:24:14;8.83;;;2.27;;
11034;SDS011;5571;48.110;-1.706;2023-01-19T07:26:40;6.40;;;2.30;;
11034;SDS011;5571;48.110;-1.706;2023-01-19T07:29:06;7.70;;;2.47;;
11034;SDS011;5571;48.110;-1.706;2023-01-19T07:31:34;5.90;;;2.90;;
11034;SDS011;5571;48.110;-1.706;2023-01-19T07:33:59;8.93;;;3.50;;
11034;SDS011;5571;48.110;-1.706;2023-01-19T07:36:25;9.17;;;4.30;;
11034;SDS011;5571;48.110;-1.706;2023-01-19T07:38:51;6.90;;;3.03;;
11034;SDS011;5571;48.110;-1.706;2023-01-19T07:41:16;7.73;;;4.30;;
11034;SDS011;5571;48.110;-1.706;2023-01-19T07:43:42;18.70;;;10.00;;
11034;SDS011;5571;48.110;-1.706;2023-01-19T07:46:07;21.17;;;10.60;;
11034;SDS011;5571;48.110;-1.706;2023-01-19T07:48:33;17.87;;;9.23;;
11034;SDS011;5571;48.110;-1.706;2023-01-19T07:50:59;18.53;;;8.87;;
11034;SDS011;5571;48.110;-1.706;2023-01-19T07:53:29;15.70;;;7.53;;
11034;SDS011;5571;48.110;-1.706;2023-01-19T07:55:55;18.83;;;10.60;;
11034;SDS011;5571;48.110;-1.706;2023-01-19T07:58:22;22.67;;;10.00;;
11034;SDS011;5571;48.110;-1.706;2023-01-19T08:00:48;9.20;;;4.17;;
11034;SDS011;5571;48.110;-1.706;2023-01-19T08:03:14;13.23;;;5.97;;
11034;SDS011;5571;48.110;-1.706;2023-01-19T08:05:40;21.43;;;9.93;;
11034;SDS011;5571;48.110;-1.706;2023-01-19T08:08:06;14.00;;;7.80;;
11034;SDS011;5571;48.110;-1.706;2023-01-19T08:10:31;12.30;;;6.27;;
11034;SDS011;5571;48.110;-1.706;2023-01-19T08:12:58;13.13;;;5.17;;
11034;SDS011;5571;48.110;-1.706;2023-01-19T08:15:24;12.03;;;5.43;;
11034;SDS011;5571;48.110;-1.706;2023-01-19T08:20:22;11.23;;;5.90;;
11034;SDS011;5571;48.110;-1.706;2023-01-19T08:22:49;10.43;;;4.83;;
11034;SDS011;5571;48.110;-1.706;2023-01-19T08:25:14;11.50;;;4.00;;
11034;SDS011;5571;48.110;-1.706;2023-01-19T08:27:40;6.93;;;3.10;;
11034;SDS011;5571;48.110;-1.706;2023-01-19T08:30:06;9.00;;;3.50;;
11034;SDS011;5571;48.110;-1.706;2023-01-19T08:32:32;6.57;;;2.97;;
11034;SDS011;5571;48.110;-1.706;2023-01-19T08:34:58;8.80;;;3.03;;
11034;SDS011;5571;48.110;-1.706;2023-01-19T08:37:24;6.53;;;2.50;;
11034;SDS011;5571;48.110;-1.706;2023-01-19T08:39:49;5.43;;;3.10;;
11034;SDS011;5571;48.110;-1.706;2023-01-19T08:42:17;7.63;;;3.30;;
11034;SDS011;5571;48.110;-1.706;2023-01-19T08:44:43;10.30;;;3.77;;
11034;SDS011;5571;48.110;-1.706;2023-01-19T08:47:08;4.60;;;2.70;;
11034;SDS011;5571;48.110;-1.706;2023-01-19T08:49:34;11.40;;;3.03;;
11034;SDS011;5571;48.110;-1.706;2023-01-19T08:52:00;7.93;;;2.87;;
11034;SDS011;5571;48.110;-1.706;2023-01-19T08:54:27;6.70;;;2.73;;
11034;SDS011;5571;48.110;-1.706;2023-01-19T08:56:52;8.67;;;3.00;;
11034;SDS011;5571;48.110;-1.706;2023-01-19T08:59:18;11.33;;;3.20;;
11034;SDS011;5571;48.110;-1.706;2023-01-19T09:01:44;9.00;;;3.00;;
11034;SDS011;5571;48.110;-1.706;2023-01-19T09:04:09;6.87;;;2.70;;
11034;SDS011;5571;48.110;-1.706;2023-01-19T09:06:35;5.70;;;2.70;;
11034;SDS011;5571;48.110;-1.706;2023-01-19T09:09:01;13.07;;;3.20;;
11034;SDS011;5571;48.110;-1.706;2023-01-19T09:11:27;9.70;;;3.57;;
11034;SDS011;5571;48.110;-1.706;2023-01-19T09:13:53;16.30;;;3.23;;
11034;SDS011;5571;48.110;-1.706;2023-01-19T09:16:18;9.47;;;4.00;;
11034;SDS011;5571;48.110;-1.706;2023-01-19T09:18:44;11.00;;;3.60;;
11034;SDS011;5571;48.110;-1.706;2023-01-19T09:21:10;11.67;;;3.73;;
11034;SDS011;5571;48.110;-1.706;2023-01-19T09:23:36;11.60;;;3.73;;
11034;SDS011;5571;48.110;-1.706;2023-01-19T09:26:02;7.23;;;3.20;;
11034;SDS011;5571;48.110;-1.706;2023-01-19T09:28:29;7.57;;;3.90;;
11034;SDS011;5571;48.110;-1.706;2023-01-19T09:30:55;8.97;;;4.03;;
11034;SDS011;5571;48.110;-1.706;2023-01-19T09:33:21;9.03;;;4.57;;
11034;SDS011;5571;48.110;-1.706;2023-01-19T09:35:47;12.00;;;4.87;;
11034;SDS011;5571;48.110;-1.706;2023-01-19T09:38:15;8.33;;;3.50;;
11034;SDS011;5571;48.110;-1.706;2023-01-19T09:40:42;8.57;;;4.10;;
11034;SDS011;5571;48.110;-1.706;2023-01-19T09:43:12;12.97;;;5.80;;
11034;SDS011;5571;48.110;-1.706;2023-01-19T09:45:59;22.90;;;7.83;;
11034;SDS011;5571;48.110;-1.706;2023-01-19T09:51:18;16.40;;;6.43;;
11034;SDS011;5571;48.110;-1.706;2023-01-19T09:56:29;19.23;;;6.93;;
11034;SDS011;5571;48.110;-1.706;2023-01-19T09:58:56;23.53;;;9.60;;
11034;SDS011;5571;48.110;-1.706;2023-01-19T10:01:36;19.53;;;8.70;;
11034;SDS011;5571;48.110;-1.706;2023-01-19T10:06:53;13.70;;;5.93;;
11034;SDS011;5571;48.110;-1.706;2023-01-19T10:18:11;28.47;;;8.33;;
11034;SDS011;5571;48.110;-1.706;2023-01-19T10:20:59;31.10;;;11.23;;
11034;SDS011;5571;48.110;-1.706;2023-01-19T10:23:45;36.03;;;11.70;;
11034;SDS011;5571;48.110;-1.706;2023-01-19T10:26:17;24.53;;;9.33;;
11034;SDS011;5571;48.110;-1.706;2023-01-19T10:28:48;17.83;;;8.00;;
11034;SDS011;5571;48.110;-1.706;2023-01-19T10:31:17;19.47;;;6.30;;
11034;SDS011;5571;48.110;-1.706;2023-01-19T10:33:46;20.37;;;6.30;;
11034;SDS011;5571;48.110;-1.706;2023-01-19T10:36:18;11.90;;;5.73;;
11034;SDS011;5571;48.110;-1.706;2023-01-19T10:38:57;17.07;;;5.37;;
11034;SDS011;5571;48.110;-1.706;2023-01-19T10:41:27;9.77;;;4.47;;
11034;SDS011;5571;48.110;-1.706;2023-01-19T10:44:04;11.03;;;4.70;;
11034;SDS011;5571;48.110;-1.706;2023-01-19T10:46:35;14.70;;;5.17;;
11034;SDS011;5571;48.110;-1.706;2023-01-19T10:51:59;8.47;;;5.07;;
11034;SDS011;5571;48.110;-1.706;2023-01-19T10:54:25;11.57;;;5.23;;
11034;SDS011;5571;48.110;-1.706;2023-01-19T10:56:56;13.00;;;5.47;;
11034;SDS011;5571;48.110;-1.706;2023-01-19T11:04:42;12.23;;;6.47;;
11034;SDS011;5571;48.110;-1.706;2023-01-19T11:12:40;11.10;;;4.83;;
11034;SDS011;5571;48.110;-1.706;2023-01-19T11:15:24;13.70;;;5.70;;
11034;SDS011;5571;48.110;-1.706;2023-01-19T11:17:56;13.80;;;6.00;;
11034;SDS011;5571;48.110;-1.706;2023-01-19T11:20:23;19.43;;;6.93;;
11034;SDS011;5571;48.110;-1.706;2023-01-19T11:25:57;12.43;;;5.37;;
11034;SDS011;5571;48.110;-1.706;2023-01-19T11:31:15;12.90;;;4.87;;
11034;SDS011;5571;48.110;-1.706;2023-01-19T11:36:21;8.13;;;4.37;;
11034;SDS011;5571;48.110;-1.706;2023-01-19T11:41:45;16.57;;;5.37;;
11034;SDS011;5571;48.110;-1.706;2023-01-19T11:46:42;12.17;;;5.20;;
11034;SDS011;5571;48.110;-1.706;2023-01-19T11:49:20;9.07;;;5.40;;
11034;SDS011;5571;48.110;-1.706;2023-01-19T11:52:24;11.20;;;5.00;;
11034;SDS011;5571;48.110;-1.706;2023-01-19T11:55:16;14.77;;;5.43;;
11034;SDS011;5571;48.110;-1.706;2023-01-19T11:57:49;12.23;;;4.90;;
11034;SDS011;5571;48.110;-1.706;2023-01-19T12:02:48;10.43;;;4.77;;
11034;SDS011;5571;48.110;-1.706;2023-01-19T12:05:18;16.97;;;7.97;;
11034;SDS011;5571;48.110;-1.706;2023-01-19T12:07:45;18.80;;;6.80;;
11034;SDS011;5571;48.110;-1.706;2023-01-19T12:10:21;16.27;;;5.60;;
11034;SDS011;5571;48.110;-1.706;2023-01-19T12:12:56;10.67;;;5.40;;
11034;SDS011;5571;48.110;-1.706;2023-01-19T12:18:06;13.03;;;5.30;;
11034;SDS011;5571;48.110;-1.706;2023-01-19T12:20:43;12.23;;;5.30;;
11034;SDS011;5571;48.110;-1.706;2023-01-19T12:23:31;10.97;;;5.13;;
11034;SDS011;5571;48.110;-1.706;2023-01-19T12:28:48;10.33;;;5.17;;
11034;SDS011;5571;48.110;-1.706;2023-01-19T12:31:16;13.33;;;5.30;;
11034;SDS011;5571;48.110;-1.706;2023-01-19T12:33:45;8.40;;;4.20;;
11034;SDS011;5571;48.110;-1.706;2023-01-19T12:39:00;12.43;;;5.47;;
11034;SDS011;5571;48.110;-1.706;2023-01-19T12:41:45;10.17;;;5.00;;
11034;SDS011;5571;48.110;-1.706;2023-01-19T12:46:40;10.37;;;5.37;;
11034;SDS011;5571;48.110;-1.706;2023-01-19T12:51:48;11.67;;;5.77;;
11034;SDS011;5571;48.110;-1.706;2023-01-19T12:54:27;11.13;;;5.03;;
11034;SDS011;5571;48.110;-1.706;2023-01-19T12:56:59;10.97;;;5.33;;
11034;SDS011;5571;48.110;-1.706;2023-01-19T12:59:30;10.67;;;5.10;;
11034;SDS011;5571;48.110;-1.706;2023-01-19T13:13:18;9.27;;;4.53;;
11034;SDS011;5571;48.110;-1.706;2023-01-19T13:15:44;14.20;;;4.90;;
11034;SDS011;5571;48.110;-1.706;2023-01-19T13:18:17;9.93;;;4.60;;
11034;SDS011;5571;48.110;-1.706;2023-01-19T13:20:53;9.87;;;4.87;;
11034;SDS011;5571;48.110;-1.706;2023-01-19T13:25:53;12.33;;;3.90;;
11034;SDS011;5571;48.110;-1.706;2023-01-19T13:28:53;9.13;;;3.07;;
11034;SDS011;5571;48.110;-1.706;2023-01-19T13:31:20;10.50;;;3.33;;
11034;SDS011;5571;48.110;-1.706;2023-01-19T13:33:53;10.03;;;2.83;;
11034;SDS011;5571;48.110;-1.706;2023-01-19T13:38:57;11.30;;;2.53;;
11034;SDS011;5571;48.110;-1.706;2023-01-19T13:41:29;6.37;;;2.60;;
11034;SDS011;5571;48.110;-1.706;2023-01-19T13:44:42;7.17;;;2.77;;
11034;SDS011;5571;48.110;-1.706;2023-01-19T13:46:53;6.57;;;2.73;;
11034;SDS011;5571;48.110;-1.706;2023-01-19T13:57:32;8.97;;;2.43;;
11034;SDS011;5571;48.110;-1.706;2023-01-19T14:02:41;5.33;;;2.80;;
11034;SDS011;5571;48.110;-1.706;2023-01-19T14:05:21;9.20;;;2.83;;
11034;SDS011;5571;48.110;-1.706;2023-01-19T14:10:27;8.57;;;2.90;;
11034;SDS011;5571;48.110;-1.706;2023-01-19T14:12:58;7.10;;;2.90;;
11034;SDS011;5571;48.110;-1.706;2023-01-19T14:15:28;7.73;;;2.93;;
11034;SDS011;5571;48.110;-1.706;2023-01-19T14:20:40;6.57;;;2.67;;
11034;SDS011;5571;48.110;-1.706;2023-01-19T14:29:14;8.33;;;2.67;;
11034;SDS011;5571;48.110;-1.706;2023-01-19T14:34:49;8.07;;;2.80;;
11034;SDS011;5571;48.110;-1.706;2023-01-19T14:37:36;7.20;;;2.30;;
11034;SDS011;5571;48.110;-1.706;2023-01-19T14:42:37;6.47;;;3.10;;
11034;SDS011;5571;48.110;-1.706;2023-01-19T14:45:29;5.23;;;2.53;;
11034;SDS011;5571;48.110;-1.706;2023-01-19T14:47:59;5.63;;;2.60;;
11034;SDS011;5571;48.110;-1.706;2023-01-19T14:50:36;9.37;;;3.23;;
11034;SDS011;5571;48.110;-1.706;2023-01-19T14:53:22;6.27;;;2.93;;
11034;SDS011;5571;48.110;-1.706;2023-01-19T14:55:50;4.53;;;2.90;;
11034;SDS011;5571;48.110;-1.706;2023-01-19T14:58:23;5.93;;;2.73;;
11034;SDS011;5571;48.110;-1.706;2023-01-19T15:00:50;8.17;;;2.97;;
11034;SDS011;5571;48.110;-1.706;2023-01-19T15:03:23;8.33;;;3.10;;
11034;SDS011;5571;48.110;-1.706;2023-01-19T15:05:50;8.67;;;3.30;;
11034;SDS011;5571;48.110;-1.706;2023-01-19T15:08:19;7.40;;;3.13;;
11034;SDS011;5571;48.110;-1.706;2023-01-19T15:11:00;7.13;;;3.27;;
11034;SDS011;5571;48.110;-1.706;2023-01-19T15:13:42;8.13;;;2.90;;
11034;SDS011;5571;48.110;-1.706;2023-01-19T15:16:08;6.63;;;3.33;;
11034;SDS011;5571;48.110;-1.706;2023-01-19T15:18:34;6.73;;;3.77;;
11034;SDS011;5571;48.110;-1.706;2023-01-19T15:21:01;6.70;;;3.30;;
11034;SDS011;5571;48.110;-1.706;2023-01-19T15:23:28;7.20;;;3.37;;
11034;SDS011;5571;48.110;-1.706;2023-01-19T15:25:57;8.60;;;3.20;;
11034;SDS011;5571;48.110;-1.706;2023-01-19T15:28:28;7.93;;;3.10;;
11034;SDS011;5571;48.110;-1.706;2023-01-19T15:30:54;9.83;;;3.13;;
11034;SDS011;5571;48.110;-1.706;2023-01-19T15:33:25;11.27;;;3.23;;
11034;SDS011;5571;48.110;-1.706;2023-01-19T15:35:54;9.27;;;3.03;;
11034;SDS011;5571;48.110;-1.706;2023-01-19T15:38:20;5.53;;;2.87;;
11034;SDS011;5571;48.110;-1.706;2023-01-19T15:40:46;9.17;;;2.70;;
11034;SDS011;5571;48.110;-1.706;2023-01-19T15:43:12;8.20;;;2.73;;
11034;SDS011;5571;48.110;-1.706;2023-01-19T15:45:42;9.33;;;2.97;;
11034;SDS011;5571;48.110;-1.706;2023-01-19T15:48:12;9.73;;;3.53;;
11034;SDS011;5571;48.110;-1.706;2023-01-19T15:50:41;9.43;;;3.60;;
11034;SDS011;5571;48.110;-1.706;2023-01-19T15:53:12;12.23;;;3.93;;
11034;SDS011;5571;48.110;-1.706;2023-01-19T15:55:40;4.70;;;2.97;;
11034;SDS011;5571;48.110;-1.706;2023-01-19T15:58:06;6.90;;;3.60;;
11034;SDS011;5571;48.110;-1.706;2023-01-19T16:00:32;7.60;;;3.30;;
11034;SDS011;5571;48.110;-1.706;2023-01-19T16:02:59;7.80;;;2.90;;
11034;SDS011;5571;48.110;-1.706;2023-01-19T16:05:26;8.47;;;3.30;;
11034;SDS011;5571;48.110;-1.706;2023-01-19T16:07:52;7.37;;;3.63;;
11034;SDS011;5571;48.110;-1.706;2023-01-19T16:10:17;8.70;;;3.40;;
11034;SDS011;5571;48.110;-1.706;2023-01-19T16:12:43;9.50;;;2.90;;
11034;SDS011;5571;48.110;-1.706;2023-01-19T16:15:11;7.27;;;3.23;;
11034;SDS011;5571;48.110;-1.706;2023-01-19T16:17:37;7.83;;;3.23;;
11034;SDS011;5571;48.110;-1.706;2023-01-19T16:20:03;7.93;;;3.30;;
11034;SDS011;5571;48.110;-1.706;2023-01-19T16:22:29;9.17;;;3.27;;
11034;SDS011;5571;48.110;-1.706;2023-01-19T16:24:55;10.43;;;3.47;;
11034;SDS011;5571;48.110;-1.706;2023-01-19T16:27:24;7.90;;;4.00;;
11034;SDS011;5571;48.110;-1.706;2023-01-19T16:29:50;8.73;;;3.73;;
11034;SDS011;5571;48.110;-1.706;2023-01-19T16:32:16;10.23;;;3.90;;
11034;SDS011;5571;48.110;-1.706;2023-01-19T16:34:42;9.23;;;3.77;;
11034;SDS011;5571;48.110;-1.706;2023-01-19T16:37:08;7.23;;;3.70;;
11034;SDS011;5571;48.110;-1.706;2023-01-19T16:39:34;8.13;;;3.67;;
11034;SDS011;5571;48.110;-1.706;2023-01-19T16:42:00;10.77;;;3.77;;
11034;SDS011;5571;48.110;-1.706;2023-01-19T16:44:26;9.73;;;4.07;;
11034;SDS011;5571;48.110;-1.706;2023-01-19T16:46:51;10.60;;;4.50;;
11034;SDS011;5571;48.110;-1.706;2023-01-19T16:49:19;59.73;;;32.30;;
11034;SDS011;5571;48.110;-1.706;2023-01-19T16:51:49;82.43;;;47.07;;
11034;SDS011;5571;48.110;-1.706;2023-01-19T16:54:16;46.20;;;22.97;;